Time;durP1;ratioP1;P1;durP2;ratioP2;P2;SDS_P1;SDS_P2;PMS_P1;PMS_P2;Temp;Humidity;BMP_temperature;BMP_pressure;BME280_temperature;BME280_humidity;BME280_pressure;Samples;Min_cycle;Max_cycle;Signal;HPM_P1;HPM_P2
2022/01/11 00:02:02;;;;;;;;;;;4.20;79.60;;;;;;5025579;28;87079;-42
2022/01/11 00:04:30;;;;;;;;;;;4.20;79.70;;;;;;5025877;28;87298;-43
2022/01/11 00:06:56;;;;;;;;;;;4.20;79.50;;;;;;5024817;28;89355;-43
2022/01/11 00:09:31;;;;;;;;;;;4.20;79.50;;;;;;5025203;28;87098;-42
2022/01/11 00:11:57;;;;;;;;;;;4.10;79.80;;;;;;5026977;28;88845;-42
2022/01/11 00:14:23;;;;;;;;;;;4.10;79.50;;;;;;5025042;28;87083;-43
2022/01/11 00:16:48;;;;;;;;;;;4.10;79.60;;;;;;5025201;28;87497;-42
2022/01/11 00:19:14;;;;;;;;;;;4.10;79.80;;;;;;5024532;28;88702;-42
2022/01/11 00:21:46;;;;;;;;;;;4.10;79.70;;;;;;5024952;28;88000;-42
2022/01/11 00:24:29;;;;;;;;;;;4.10;79.50;;;;;;5025139;28;88957;-42
2022/01/11 00:26:58;;;;;;;;;;;4.10;79.70;;;;;;5024114;28;89379;-42
2022/01/11 00:29:24;;;;;;;;;;;4.10;79.60;;;;;;5025611;28;86408;-42
2022/01/11 00:31:50;;;;;;;;;;;4.00;79.30;;;;;;5024880;28;88428;-42
2022/01/11 00:34:19;;;;;;;;;;;4.00;79.60;;;;;;5025960;28;91332;-42
2022/01/11 00:36:44;;;;;;;;;;;4.00;79.60;;;;;;5024307;28;87781;-42
2022/01/11 00:39:10;;;;;;;;;;;4.00;79.70;;;;;;5024211;28;89694;-43
2022/01/11 00:41:37;;;;;;;;;;;4.00;79.80;;;;;;5024155;28;87118;-42
2022/01/11 00:44:03;;;;;;;;;;;4.00;79.60;;;;;;5024695;28;87740;-42
2022/01/11 00:46:29;;;;;;;;;;;4.00;79.50;;;;;;5024182;28;89421;-42
2022/01/11 00:48:54;;;;;;;;;;;4.00;79.80;;;;;;5024845;28;87102;-42
2022/01/11 00:51:20;;;;;;;;;;;4.00;79.50;;;;;;5024584;28;89486;-42
2022/01/11 00:53:45;;;;;;;;;;;4.00;79.90;;;;;;5024503;28;89175;-42
2022/01/11 00:56:11;;;;;;;;;;;4.00;79.40;;;;;;5027241;28;86884;-42
2022/01/11 00:58:36;;;;;;;;;;;3.90;79.20;;;;;;5024182;28;90151;-42
2022/01/11 01:01:02;;;;;;;;;;;3.90;79.60;;;;;;5023750;28;88053;-42
2022/01/11 01:03:27;;;;;;;;;;;3.90;79.40;;;;;;5024407;28;90165;-42
2022/01/11 01:05:53;;;;;;;;;;;3.90;79.70;;;;;;5024018;28;89502;-42
2022/01/11 01:08:19;;;;;;;;;;;3.90;79.70;;;;;;5024294;28;87120;-42
2022/01/11 01:10:48;;;;;;;;;;;3.90;79.80;;;;;;5024266;28;88114;-42
2022/01/11 01:13:17;;;;;;;;;;;3.80;79.80;;;;;;5024027;28;87476;-42
2022/01/11 01:15:46;;;;;;;;;;;3.90;79.70;;;;;;5027039;28;87055;-42
2022/01/11 01:18:14;;;;;;;;;;;3.90;79.70;;;;;;5024119;28;88535;-42
2022/01/11 01:20:40;;;;;;;;;;;3.80;79.50;;;;;;5024050;28;87008;-42
2022/01/11 01:23:05;;;;;;;;;;;3.80;79.60;;;;;;5023711;28;87668;-42
2022/01/11 01:25:31;;;;;;;;;;;3.90;79.70;;;;;;5023206;28;89567;-42
2022/01/11 01:27:56;;;;;;;;;;;3.80;79.80;;;;;;5023865;28;87184;-42
2022/01/11 01:30:22;;;;;;;;;;;3.90;79.70;;;;;;5024198;28;87666;-42
2022/01/11 01:32:51;;;;;;;;;;;3.80;79.40;;;;;;5023523;28;89745;-42
2022/01/11 01:35:19;;;;;;;;;;;3.80;79.60;;;;;;5023828;28;87145;-42
2022/01/11 01:37:45;;;;;;;;;;;3.80;79.20;;;;;;5025181;28;88032;-42
2022/01/11 01:40:12;;;;;;;;;;;3.70;79.50;;;;;;5023388;28;87105;-42
2022/01/11 01:42:38;;;;;;;;;;;3.80;79.40;;;;;;5024248;28;88805;-42
2022/01/11 01:45:04;;;;;;;;;;;3.70;79.30;;;;;;5023651;28;88052;-42
2022/01/11 01:47:30;;;;;;;;;;;3.70;79.70;;;;;;5023605;28;87169;-42
2022/01/11 01:49:56;;;;;;;;;;;3.70;79.70;;;;;;5023051;28;88096;-42
2022/01/11 01:52:22;;;;;;;;;;;3.70;79.60;;;;;;5022863;28;89353;-42
2022/01/11 01:54:48;;;;;;;;;;;3.70;79.60;;;;;;5023702;28;87080;-42
2022/01/11 01:57:14;;;;;;;;;;;3.70;79.60;;;;;;5023630;28;88900;-42
2022/01/11 01:59:39;;;;;;;;;;;3.70;79.50;;;;;;5026112;28;89416;-42
2022/01/11 02:02:08;;;;;;;;;;;3.70;79.50;;;;;;5023430;28;88733;-42
2022/01/11 02:04:34;;;;;;;;;;;3.70;79.40;;;;;;5023136;28;89166;-42
2022/01/11 02:06:59;;;;;;;;;;;3.70;79.20;;;;;;5023488;28;86335;-42
2022/01/11 02:09:25;;;;;;;;;;;3.70;79.60;;;;;;5023468;28;88122;-42
2022/01/11 02:11:50;;;;;;;;;;;3.70;79.70;;;;;;5023176;28;88416;-42
2022/01/11 02:14:16;;;;;;;;;;;3.60;79.40;;;;;;5022758;28;88093;-42
2022/01/11 02:16:42;;;;;;;;;;;3.60;79.50;;;;;;5023397;28;90077;-42
2022/01/11 02:19:07;;;;;;;;;;;3.60;79.70;;;;;;5022812;28;88484;-42
2022/01/11 02:21:33;;;;;;;;;;;3.60;79.60;;;;;;5025999;28;87033;-42
2022/01/11 02:23:59;;;;;;;;;;;3.60;80.00;;;;;;5022802;28;89780;-42
2022/01/11 02:26:25;;;;;;;;;;;3.60;80.00;;;;;;5023292;28;87192;-42
2022/01/11 02:28:51;;;;;;;;;;;3.50;79.80;;;;;;5023062;28;88922;-42
2022/01/11 02:31:17;;;;;;;;;;;3.60;79.90;;;;;;5023277;28;88851;-42
2022/01/11 02:33:46;;;;;;;;;;;3.50;79.70;;;;;;5023097;28;87131;-42
2022/01/11 02:36:19;;;;;;;;;;;3.50;79.80;;;;;;5022910;28;88834;-42
2022/01/11 02:38:49;;;;;;;;;;;3.50;79.70;;;;;;5022255;28;89325;-42
2022/01/11 02:41:15;;;;;;;;;;;3.50;79.70;;;;;;5022660;28;87153;-42
2022/01/11 02:43:46;;;;;;;;;;;3.50;79.40;;;;;;5025515;28;88904;-42
2022/01/11 02:46:12;;;;;;;;;;;3.50;79.50;;;;;;5023013;28;86942;-42
2022/01/11 02:48:40;;;;;;;;;;;3.40;79.90;;;;;;5024208;28;87614;-42
2022/01/11 02:51:06;;;;;;;;;;;3.40;79.80;;;;;;5026100;28;89628;-42
2022/01/11 02:53:37;;;;;;;;;;;3.50;79.60;;;;;;5026677;28;86982;-42
2022/01/11 02:56:03;;;;;;;;;;;3.50;79.40;;;;;;5026930;28;89142;-42
2022/01/11 02:58:28;;;;;;;;;;;3.50;79.80;;;;;;5025914;28;89294;-42
2022/01/11 03:00:54;;;;;;;;;;;3.50;79.60;;;;;;5026261;28;87134;-42
2022/01/11 03:03:23;;;;;;;;;;;3.50;79.60;;;;;;5025528;28;89075;-42
2022/01/11 03:06:00;;;;;;;;;;;3.50;79.50;;;;;;5028851;28;87905;-42
2022/01/11 03:08:27;;;;;;;;;;;3.50;79.20;;;;;;5026165;28;88063;-42
2022/01/11 03:10:53;;;;;;;;;;;3.50;79.40;;;;;;5025980;28;88051;-42
2022/01/11 03:13:19;;;;;;;;;;;3.40;79.50;;;;;;5026078;28;87111;-42
2022/01/11 03:15:46;;;;;;;;;;;3.40;79.60;;;;;;5025986;28;89088;-42
2022/01/11 03:18:12;;;;;;;;;;;3.40;79.70;;;;;;5025423;28;89704;-42
2022/01/11 03:20:38;;;;;;;;;;;3.40;79.50;;;;;;5026392;28;86353;-42
2022/01/11 03:23:04;;;;;;;;;;;3.40;79.50;;;;;;5026023;28;88237;-42
2022/01/11 03:25:29;;;;;;;;;;;3.40;79.60;;;;;;5028311;28;89659;-42
2022/01/11 03:27:55;;;;;;;;;;;3.40;79.50;;;;;;5025085;28;88774;-42
2022/01/11 03:30:21;;;;;;;;;;;3.40;79.60;;;;;;5025594;28;88369;-42
2022/01/11 03:32:46;;;;;;;;;;;3.40;79.20;;;;;;5025411;28;87113;-42
2022/01/11 03:35:12;;;;;;;;;;;3.30;79.40;;;;;;5026070;28;87325;-42
2022/01/11 03:37:39;;;;;;;;;;;3.30;79.50;;;;;;5025470;28;88442;-42
2022/01/11 03:40:06;;;;;;;;;;;3.30;79.50;;;;;;5025368;28;86970;-43
2022/01/11 03:42:32;;;;;;;;;;;3.30;79.40;;;;;;5025561;28;88896;-42
2022/01/11 03:44:57;;;;;;;;;;;3.30;79.50;;;;;;5025956;28;86566;-42
2022/01/11 03:47:23;;;;;;;;;;;3.20;79.40;;;;;;5028146;28;87402;-42
2022/01/11 03:49:49;;;;;;;;;;;3.30;79.40;;;;;;5025528;28;87114;-42
2022/01/11 03:52:14;;;;;;;;;;;3.30;79.20;;;;;;5024824;28;88056;-42
2022/01/11 03:54:51;;;;;;;;;;;3.30;79.40;;;;;;5025594;28;89728;-42
2022/01/11 03:57:17;;;;;;;;;;;3.20;79.60;;;;;;5025084;28;90090;-42
2022/01/11 03:59:43;;;;;;;;;;;3.30;79.80;;;;;;5024286;28;86959;-42
2022/01/11 04:02:08;;;;;;;;;;;3.20;79.70;;;;;;5025132;28;88726;-42
2022/01/11 04:04:34;;;;;;;;;;;3.20;79.50;;;;;;5024818;28;89589;-42
2022/01/11 04:07:02;;;;;;;;;;;3.20;79.70;;;;;;5025133;28;87137;-42
2022/01/11 04:09:28;;;;;;;;;;;3.20;79.40;;;;;;5028246;28;89134;-42
2022/01/11 04:11:53;;;;;;;;;;;3.20;79.50;;;;;;5025127;28;87199;-42
2022/01/11 04:14:19;;;;;;;;;;;3.20;79.30;;;;;;5025352;28;87426;-43
2022/01/11 04:16:46;;;;;;;;;;;3.20;79.30;;;;;;5023991;28;90566;-42
2022/01/11 04:19:11;;;;;;;;;;;3.20;79.60;;;;;;5024992;28;87018;-42
2022/01/11 04:21:37;;;;;;;;;;;3.10;79.60;;;;;;5025035;28;88791;-42
2022/01/11 04:24:03;;;;;;;;;;;3.10;79.50;;;;;;5024680;28;89665;-42
2022/01/11 04:26:28;;;;;;;;;;;3.10;79.60;;;;;;5024838;28;87134;-42
2022/01/11 04:28:54;;;;;;;;;;;3.10;79.40;;;;;;5024871;28;89225;-42
2022/01/11 04:31:19;;;;;;;;;;;3.10;79.40;;;;;;5027098;28;89276;-42
2022/01/11 04:33:45;;;;;;;;;;;3.10;79.60;;;;;;5025427;28;88980;-42
2022/01/11 04:36:12;;;;;;;;;;;3.10;79.30;;;;;;5024570;28;89564;-42
2022/01/11 04:38:37;;;;;;;;;;;3.10;79.60;;;;;;5024905;28;87031;-42
2022/01/11 04:41:03;;;;;;;;;;;3.10;79.70;;;;;;5023569;28;89290;-42
2022/01/11 04:43:30;;;;;;;;;;;3.10;79.50;;;;;;5024288;28;89675;-42
2022/01/11 04:45:56;;;;;;;;;;;3.10;79.60;;;;;;5024467;28;87112;-42
2022/01/11 04:48:22;;;;;;;;;;;3.10;79.70;;;;;;5024502;28;89257;-42
2022/01/11 04:50:47;;;;;;;;;;;3.10;79.70;;;;;;5024287;28;89632;-42
2022/01/11 04:53:13;;;;;;;;;;;3.10;79.60;;;;;;5027305;28;87121;-42
2022/01/11 04:55:39;;;;;;;;;;;3.00;79.50;;;;;;5024145;28;89157;-42
2022/01/11 04:58:04;;;;;;;;;;;3.10;79.60;;;;;;5024915;28;86494;-43
2022/01/11 05:00:30;;;;;;;;;;;3.10;79.50;;;;;;5024486;28;87033;-42
2022/01/11 05:02:57;;;;;;;;;;;3.10;79.50;;;;;;5024103;28;87988;-42
2022/01/11 05:05:25;;;;;;;;;;;3.10;79.60;;;;;;5023680;28;88003;-42
2022/01/11 05:07:50;;;;;;;;;;;3.00;79.60;;;;;;5024143;28;90005;-42
2022/01/11 05:10:16;;;;;;;;;;;3.10;79.50;;;;;;5023971;28;89150;-42
2022/01/11 05:12:41;;;;;;;;;;;3.10;79.50;;;;;;5023848;28;87109;-42
2022/01/11 05:15:10;;;;;;;;;;;3.10;79.30;;;;;;5026695;28;89117;-42
2022/01/11 05:17:36;;;;;;;;;;;3.00;79.40;;;;;;5023969;28;87148;-42
2022/01/11 05:20:03;;;;;;;;;;;3.00;79.60;;;;;;5024168;28;88597;-42
2022/01/11 05:22:29;;;;;;;;;;;3.00;79.40;;;;;;5024121;28;90527;-42
2022/01/11 05:24:54;;;;;;;;;;;3.00;79.60;;;;;;5024002;28;87002;-42
2022/01/11 05:27:20;;;;;;;;;;;3.00;79.50;;;;;;5023837;28;88801;-42
2022/01/11 05:29:45;;;;;;;;;;;3.00;79.60;;;;;;5022819;28;90720;-42
2022/01/11 05:32:11;;;;;;;;;;;2.90;79.70;;;;;;5022661;28;87052;-42
2022/01/11 05:34:36;;;;;;;;;;;2.90;79.80;;;;;;5026412;28;88898;-42
2022/01/11 05:37:03;;;;;;;;;;;2.90;79.60;;;;;;5023952;28;87246;-42
2022/01/11 05:39:28;;;;;;;;;;;3.00;79.50;;;;;;5023953;28;88879;-42
2022/01/11 05:41:54;;;;;;;;;;;2.90;79.50;;;;;;5022852;28;89978;-42
2022/01/11 05:44:19;;;;;;;;;;;2.90;79.70;;;;;;5023613;28;87000;-42
2022/01/11 05:46:45;;;;;;;;;;;2.90;79.50;;;;;;5024122;28;87752;-42
2022/01/11 05:49:10;;;;;;;;;;;3.00;79.60;;;;;;5023483;28;88124;-42
2022/01/11 05:51:36;;;;;;;;;;;2.90;79.60;;;;;;5023503;28;87138;-42
2022/01/11 05:54:02;;;;;;;;;;;2.90;79.60;;;;;;5022855;28;88590;-42
2022/01/11 05:56:27;;;;;;;;;;;3.00;79.50;;;;;;5026040;28;89120;-42
2022/01/11 05:58:53;;;;;;;;;;;3.00;79.50;;;;;;5023408;28;89020;-42
2022/01/11 06:01:19;;;;;;;;;;;2.90;79.60;;;;;;5023026;28;88213;-42
2022/01/11 06:03:44;;;;;;;;;;;3.00;79.20;;;;;;5023404;28;87100;-42
2022/01/11 06:06:10;;;;;;;;;;;2.90;79.30;;;;;;5023276;28;88652;-42
2022/01/11 06:08:36;;;;;;;;;;;2.90;79.40;;;;;;5022971;28;89726;-42
2022/01/11 06:11:01;;;;;;;;;;;2.90;79.40;;;;;;5023802;28;86252;-42
2022/01/11 06:13:27;;;;;;;;;;;2.90;79.30;;;;;;5023547;28;87829;-42
2022/01/11 06:15:52;;;;;;;;;;;2.80;79.30;;;;;;5023156;28;87316;-42
2022/01/11 06:18:18;;;;;;;;;;;2.90;79.50;;;;;;5025526;28;88029;-42
2022/01/11 06:20:43;;;;;;;;;;;2.90;79.40;;;;;;5022987;28;89737;-42
2022/01/11 06:23:09;;;;;;;;;;;2.90;79.30;;;;;;5024169;28;87091;-42
2022/01/11 06:25:35;;;;;;;;;;;2.90;79.20;;;;;;5027081;28;87399;-42
2022/01/11 06:28:01;;;;;;;;;;;2.80;79.40;;;;;;5026586;28;88255;-42
2022/01/11 06:30:27;;;;;;;;;;;2.80;79.20;;;;;;5026840;28;86968;-42
2022/01/11 06:32:54;;;;;;;;;;;2.80;79.30;;;;;;5026721;28;88068;-42
2022/01/11 06:35:19;;;;;;;;;;;2.80;79.40;;;;;;5026932;28;88669;-42
2022/01/11 06:37:46;;;;;;;;;;;2.80;79.20;;;;;;5026800;28;87043;-42
2022/01/11 06:40:12;;;;;;;;;;;2.80;79.20;;;;;;5028733;28;88695;-42
2022/01/11 06:42:38;;;;;;;;;;;2.90;79.00;;;;;;5026064;28;87907;-42
2022/01/11 06:45:05;;;;;;;;;;;2.90;79.00;;;;;;5026236;28;90537;-42
2022/01/11 06:47:30;;;;;;;;;;;2.80;79.10;;;;;;5026190;28;89683;-42
2022/01/11 06:49:56;;;;;;;;;;;2.80;79.10;;;;;;5026342;28;87109;-42
2022/01/11 06:52:21;;;;;;;;;;;2.70;79.20;;;;;;5026408;28;87878;-42
2022/01/11 06:54:47;;;;;;;;;;;2.80;79.40;;;;;;5025922;28;89447;-42
2022/01/11 06:57:13;;;;;;;;;;;2.70;79.30;;;;;;5026372;28;87156;-42
2022/01/11 06:59:38;;;;;;;;;;;2.70;79.30;;;;;;5026471;28;89097;-42
2022/01/11 07:02:05;;;;;;;;;;;2.80;79.40;;;;;;5028725;28;89265;-42
2022/01/11 07:04:30;;;;;;;;;;;2.70;79.50;;;;;;5026291;28;88924;-42
2022/01/11 07:06:56;;;;;;;;;;;2.70;79.30;;;;;;5025325;28;90258;-42
2022/01/11 07:09:22;;;;;;;;;;;2.70;79.40;;;;;;5026049;28;87112;-42
2022/01/11 07:12:06;;;;;;;;;;;2.70;79.20;;;;;;5024887;28;90865;-42
2022/01/11 07:14:31;;;;;;;;;;;2.70;79.40;;;;;;5025720;28;89270;-42
2022/01/11 07:16:57;;;;;;;;;;;2.60;79.40;;;;;;5025964;28;87025;-42
2022/01/11 07:19:23;;;;;;;;;;;2.60;79.40;;;;;;5026072;28;88008;-42
2022/01/11 07:21:48;;;;;;;;;;;2.60;79.50;;;;;;5025676;28;87949;-42
2022/01/11 07:24:15;;;;;;;;;;;2.70;79.50;;;;;;5029192;28;86209;-42
2022/01/11 07:26:40;;;;;;;;;;;2.70;79.40;;;;;;5025378;28;89593;-42
2022/01/11 07:29:07;;;;;;;;;;;2.70;79.20;;;;;;5025639;28;87070;-42
2022/01/11 07:31:33;;;;;;;;;;;2.70;79.20;;;;;;5025223;28;87953;-42
2022/01/11 07:33:59;;;;;;;;;;;2.70;79.20;;;;;;5025356;28;89234;-42
2022/01/11 07:36:25;;;;;;;;;;;2.60;79.40;;;;;;5025718;28;87060;-42
2022/01/11 07:38:53;;;;;;;;;;;2.60;79.30;;;;;;5025869;28;88729;-42
2022/01/11 07:41:19;;;;;;;;;;;2.50;79.60;;;;;;5024519;28;89422;-42
2022/01/11 07:43:44;;;;;;;;;;;2.60;79.50;;;;;;5028404;28;87127;-42
2022/01/11 07:46:10;;;;;;;;;;;2.60;79.50;;;;;;5025277;28;89548;-42
2022/01/11 07:48:36;;;;;;;;;;;2.50;79.60;;;;;;5026228;28;86552;-42
2022/01/11 07:51:01;;;;;;;;;;;2.50;79.60;;;;;;5025792;28;87310;-42
2022/01/11 07:53:27;;;;;;;;;;;2.50;79.30;;;;;;5025084;28;89520;-42
2022/01/11 07:55:52;;;;;;;;;;;2.60;79.40;;;;;;5025087;28;88096;-42
2022/01/11 07:58:18;;;;;;;;;;;2.50;79.40;;;;;;5025426;28;88599;-42
2022/01/11 08:00:43;;;;;;;;;;;2.50;79.50;;;;;;5024895;28;89672;-42
2022/01/11 08:03:09;;;;;;;;;;;2.50;79.50;;;;;;5025177;28;87128;-42
2022/01/11 08:05:35;;;;;;;;;;;2.50;79.50;;;;;;5027995;28;87896;-42
2022/01/11 08:08:00;;;;;;;;;;;2.50;79.50;;;;;;5025072;28;87111;-42
2022/01/11 08:10:26;;;;;;;;;;;2.50;79.40;;;;;;5025264;28;89459;-42
2022/01/11 08:12:51;;;;;;;;;;;2.50;79.10;;;;;;5025101;28;88714;-42
2022/01/11 08:15:17;;;;;;;;;;;2.60;79.00;;;;;;5025474;28;87111;-42
2022/01/11 08:17:42;;;;;;;;;;;2.50;78.90;;;;;;5025006;28;88934;-42
2022/01/11 08:20:08;;;;;;;;;;;2.50;79.20;;;;;;5024150;28;90454;-42
2022/01/11 08:22:34;;;;;;;;;;;2.50;78.90;;;;;;5025074;28;87005;-42
2022/01/11 08:24:59;;;;;;;;;;;2.50;78.70;;;;;;5025142;28;88805;-42
2022/01/11 08:27:25;;;;;;;;;;;2.50;78.80;;;;;;5027387;28;89441;-42
2022/01/11 08:29:51;;;;;;;;;;;2.60;78.40;;;;;;5025056;28;88878;-42
2022/01/11 08:32:16;;;;;;;;;;;2.50;78.30;;;;;;5024552;28;89439;-42
2022/01/11 08:34:42;;;;;;;;;;;2.50;78.50;;;;;;5024894;28;87136;-42
2022/01/11 08:37:08;;;;;;;;;;;2.50;78.60;;;;;;5025153;28;87812;-42
2022/01/11 08:39:34;;;;;;;;;;;2.50;78.50;;;;;;5024485;28;87800;-42
2022/01/11 08:42:00;;;;;;;;;;;2.50;78.20;;;;;;5024343;28;87161;-42
2022/01/11 08:44:26;;;;;;;;;;;2.50;78.00;;;;;;5023955;28;88969;-42
2022/01/11 08:46:52;;;;;;;;;;;2.50;79.30;;;;;;5023860;28;87885;-42
2022/01/11 08:49:17;;;;;;;;;;;2.50;78.20;;;;;;5027795;28;87180;-42
2022/01/11 08:51:43;;;;;;;;;;;2.60;78.00;;;;;;5024156;28;89645;-42
2022/01/11 08:54:11;;;;;;;;;;;2.50;78.10;;;;;;5024425;28;87096;-42
2022/01/11 08:56:37;;;;;;;;;;;2.50;78.30;;;;;;5024402;28;88856;-42
2022/01/11 08:59:03;;;;;;;;;;;2.60;78.10;;;;;;5024306;28;88020;-42
2022/01/11 09:01:31;;;;;;;;;;;2.50;77.60;;;;;;5024875;28;86348;-42
2022/01/11 09:03:56;;;;;;;;;;;2.60;77.90;;;;;;5024648;28;88116;-42
2022/01/11 09:06:22;;;;;;;;;;;2.60;77.90;;;;;;5023813;28;89389;-42
2022/01/11 09:08:47;;;;;;;;;;;2.50;77.90;;;;;;5023557;28;88094;-42
2022/01/11 09:11:13;;;;;;;;;;;2.60;77.70;;;;;;5026813;28;89679;-42
2022/01/11 09:13:39;;;;;;;;;;;2.50;77.60;;;;;;5023876;28;87184;-42
2022/01/11 09:16:05;;;;;;;;;;;2.50;77.70;;;;;;5023137;28;90107;-42
2022/01/11 09:18:31;;;;;;;;;;;2.50;77.70;;;;;;5024094;28;88008;-42
2022/01/11 09:21:00;;;;;;;;;;;2.60;77.50;;;;;;5024378;28;87026;-42
2022/01/11 09:23:29;;;;;;;;;;;2.60;77.40;;;;;;5024075;28;88876;-42
2022/01/11 09:25:55;;;;;;;;;;;2.60;77.10;;;;;;5024038;28;89114;-42
2022/01/11 09:28:21;;;;;;;;;;;2.50;77.70;;;;;;5023628;28;87527;-42
2022/01/11 09:30:47;;;;;;;;;;;2.40;77.70;;;;;;5026657;28;88665;-42
2022/01/11 09:33:13;;;;;;;;;;;2.50;77.60;;;;;;5023356;28;88053;-42
2022/01/11 09:35:38;;;;;;;;;;;2.60;76.90;;;;;;5024146;28;90001;-42
2022/01/11 09:38:04;;;;;;;;;;;2.50;77.30;;;;;;5023528;28;89585;-42
2022/01/11 09:40:29;;;;;;;;;;;2.60;77.20;;;;;;5023164;28;87125;-43
2022/01/11 09:42:55;;;;;;;;;;;2.50;77.10;;;;;;5023998;28;87485;-42
2022/01/11 09:45:20;;;;;;;;;;;2.50;77.10;;;;;;5023566;28;89695;-42
2022/01/11 09:47:47;;;;;;;;;;;2.40;77.40;;;;;;5023665;28;87107;-42
2022/01/11 09:50:13;;;;;;;;;;;2.50;77.60;;;;;;5024256;28;89006;-42
2022/01/11 09:52:40;;;;;;;;;;;2.50;77.00;;;;;;5026272;28;89484;-42
2022/01/11 09:55:06;;;;;;;;;;;2.60;77.30;;;;;;5023605;28;88988;-42
2022/01/11 09:57:32;;;;;;;;;;;2.50;76.60;;;;;;5021362;28;90391;-42
2022/01/11 09:59:58;;;;;;;;;;;2.50;76.90;;;;;;5023317;28;87220;-42
2022/01/11 10:02:23;;;;;;;;;;;2.40;77.20;;;;;;5023585;28;88808;-43
2022/01/11 10:04:55;;;;;;;;;;;2.40;77.30;;;;;;5023332;28;88950;-42
2022/01/11 10:07:26;;;;;;;;;;;2.40;77.10;;;;;;5023428;28;86912;-42
2022/01/11 10:09:53;;;;;;;;;;;2.40;77.10;;;;;;5023595;28;88008;-42
2022/01/11 10:12:18;;;;;;;;;;;2.40;77.20;;;;;;5023084;28;89669;-42
2022/01/11 10:14:48;;;;;;;;;;;2.40;77.20;;;;;;5027085;28;86235;-42
2022/01/11 10:17:24;;;;;;;;;;;2.40;77.20;;;;;;5023177;28;89571;-42
2022/01/11 10:19:58;;;;;;;;;;;2.40;77.20;;;;;;5023349;28;86976;-42
2022/01/11 10:22:24;;;;;;;;;;;2.30;77.30;;;;;;5022747;28;89117;-42
2022/01/11 10:24:51;;;;;;;;;;;2.40;77.20;;;;;;5022703;28;89279;-42
2022/01/11 10:27:34;;;;;;;;;;;2.40;77.00;;;;;;5023131;28;86979;-42
2022/01/11 10:30:03;;;;;;;;;;;2.40;77.20;;;;;;5023304;28;89125;-42
2022/01/11 10:32:31;;;;;;;;;;;2.40;77.10;;;;;;5022716;28;89406;-42
2022/01/11 10:35:02;;;;;;;;;;;2.40;77.10;;;;;;5022968;28;86997;-42
2022/01/11 10:37:28;;;;;;;;;;;2.40;77.20;;;;;;5025620;28;88958;-42
2022/01/11 10:39:59;;;;;;;;;;;2.40;77.00;;;;;;5023481;28;86352;-42
2022/01/11 10:42:32;;;;;;;;;;;2.40;77.00;;;;;;5023279;28;87010;-42
2022/01/11 10:44:59;;;;;;;;;;;2.30;77.20;;;;;;5022628;28;89311;-42
2022/01/11 10:47:29;;;;;;;;;;;2.30;77.10;;;;;;5022143;28;88062;-42
2022/01/11 10:50:03;;;;;;;;;;;2.30;77.10;;;;;;5023048;28;88254;-42
2022/01/11 10:52:31;;;;;;;;;;;2.30;77.20;;;;;;5022548;28;89150;-42
2022/01/11 10:54:58;;;;;;;;;;;2.40;77.40;;;;;;5022974;28;87111;-42
2022/01/11 10:57:25;;;;;;;;;;;2.30;77.20;;;;;;5022995;28;89259;-42
2022/01/11 11:00:10;;;;;;;;;;;2.40;77.30;;;;;;5025448;28;87941;-42
2022/01/11 11:02:36;;;;;;;;;;;2.30;77.30;;;;;;5022646;27;89033;-42
2022/01/11 11:05:12;;;;;;;;;;;2.30;77.20;;;;;;5022877;28;89166;-42
2022/01/11 11:07:38;;;;;;;;;;;2.30;77.30;;;;;;5022530;28;87170;-42
2022/01/11 11:10:04;;;;;;;;;;;2.30;77.20;;;;;;5024671;28;88879;-42
2022/01/11 11:12:30;;;;;;;;;;;2.30;77.20;;;;;;5025048;28;90100;-42
2022/01/11 11:14:56;;;;;;;;;;;2.30;77.70;;;;;;5026038;28;87130;-42
2022/01/11 11:17:29;;;;;;;;;;;2.30;77.50;;;;;;5026291;28;87363;-42
2022/01/11 11:20:15;;;;;;;;;;;2.30;77.10;;;;;;5026066;28;87214;-42
2022/01/11 11:22:41;;;;;;;;;;;2.20;77.40;;;;;;5029000;28;87114;-42
2022/01/11 11:25:07;;;;;;;;;;;2.30;77.30;;;;;;5025519;28;88589;-42
2022/01/11 11:27:33;;;;;;;;;;;2.20;77.20;;;;;;5025734;28;87195;-42
2022/01/11 11:30:01;;;;;;;;;;;2.30;77.30;;;;;;5026279;28;89086;-42
2022/01/11 11:32:27;;;;;;;;;;;2.20;77.30;;;;;;5025458;28;89450;-42
2022/01/11 11:34:53;;;;;;;;;;;2.20;77.20;;;;;;5025890;28;87251;-42
2022/01/11 11:37:21;;;;;;;;;;;2.20;77.40;;;;;;5025383;28;87898;-42
2022/01/11 11:39:52;;;;;;;;;;;2.20;77.30;;;;;;5025283;28;88160;-42
2022/01/11 11:42:18;;;;;;;;;;;2.30;77.20;;;;;;5028654;28;86947;-42
2022/01/11 11:44:46;;;;;;;;;;;2.20;77.20;;;;;;5025475;28;88161;-42
2022/01/11 11:47:11;;;;;;;;;;;2.20;77.00;;;;;;5025603;28;87158;-42
2022/01/11 11:49:43;;;;;;;;;;;2.20;77.10;;;;;;5025569;28;88913;-42
2022/01/11 11:52:29;;;;;;;;;;;2.20;77.00;;;;;;5025238;28;89695;-42
2022/01/11 11:55:00;;;;;;;;;;;2.10;77.20;;;;;;5026424;28;86182;-42
2022/01/11 11:57:27;;;;;;;;;;;2.20;77.20;;;;;;5025567;28;88083;-42
2022/01/11 11:59:58;;;;;;;;;;;2.20;77.20;;;;;;5025147;28;88472;-42
2022/01/11 12:02:30;;;;;;;;;;;2.20;77.00;;;;;;5024876;28;88018;-42
2022/01/11 12:04:56;;;;;;;;;;;2.10;77.00;;;;;;5027988;28;89522;-42
2022/01/11 12:07:29;;;;;;;;;;;2.20;76.90;;;;;;5025449;28;87187;-42
2022/01/11 12:09:54;;;;;;;;;;;2.10;77.00;;;;;;5025262;28;88593;-42
2022/01/11 12:12:38;;;;;;;;;;;2.10;77.00;;;;;;5024952;28;89474;-42
2022/01/11 12:15:22;;;;;;;;;;;2.10;76.90;;;;;;5025140;28;87383;-42
2022/01/11 12:18:08;;;;;;;;;;;2.10;76.70;;;;;;5025230;28;88646;-42
2022/01/11 12:20:39;;;;;;;;;;;2.10;76.90;;;;;;5026820;27;88717;-42
2022/01/11 12:23:05;;;;;;;;;;;2.10;76.80;;;;;;5024895;28;87112;-42
2022/01/11 12:25:33;;;;;;;;;;;2.10;76.70;;;;;;5024985;28;89115;-42
2022/01/11 12:28:00;;;;;;;;;;;2.00;76.60;;;;;;5026672;28;90233;-42
2022/01/11 12:30:26;;;;;;;;;;;2.10;76.60;;;;;;5025156;28;89039;-42
2022/01/11 12:33:10;;;;;;;;;;;2.10;76.80;;;;;;5024737;28;88117;-42
2022/01/11 12:35:55;;;;;;;;;;;2.10;76.80;;;;;;5024832;28;87137;-42
2022/01/11 12:38:21;;;;;;;;;;;2.10;76.90;;;;;;5024652;28;88630;-42
2022/01/11 12:40:47;;;;;;;;;;;2.10;76.80;;;;;;5024114;28;89336;-42
2022/01/11 12:43:18;;;;;;;;;;;2.00;77.20;;;;;;5024596;28;87000;-42
2022/01/11 12:45:53;;;;;;;;;;;2.00;76.90;;;;;;5024053;28;91318;-42
2022/01/11 12:48:37;;;;;;;;;;;2.00;76.90;;;;;;5024222;28;89765;-42
2022/01/11 12:51:03;;;;;;;;;;;2.00;77.00;;;;;;5027577;28;87378;-42
2022/01/11 12:53:28;;;;;;;;;;;2.00;76.90;;;;;;5023474;28;90386;-42
2022/01/11 12:55:57;;;;;;;;;;;2.00;77.00;;;;;;5023421;28;87165;-42
2022/01/11 12:58:24;;;;;;;;;;;1.90;77.00;;;;;;5024353;28;88874;-42
2022/01/11 13:00:50;;;;;;;;;;;1.90;77.30;;;;;;5023820;28;89300;-42
2022/01/11 13:03:16;;;;;;;;;;;2.00;77.40;;;;;;5024344;28;86890;-41
2022/01/11 13:05:42;;;;;;;;;;;2.00;77.30;;;;;;5024128;28;88892;-42
2022/01/11 13:08:09;;;;;;;;;;;2.00;77.40;;;;;;5023465;28;89470;-42
2022/01/11 13:10:34;;;;;;;;;;;2.00;77.10;;;;;;5023383;28;86641;-42
2022/01/11 13:13:03;;;;;;;;;;;1.90;76.80;;;;;;5026700;28;87955;-42
2022/01/11 13:15:36;;;;;;;;;;;2.00;76.90;;;;;;5024168;28;87124;-42
2022/01/11 13:18:12;;;;;;;;;;;1.90;77.00;;;;;;5023479;28;89237;-42
2022/01/11 13:20:42;;;;;;;;;;;1.90;77.20;;;;;;5023868;28;88541;-42
2022/01/11 13:25:50;;;;;;;;;;;1.90;76.90;;;;;;5023316;28;87442;-42
2022/01/11 13:28:18;;;;;;;;;;;1.90;77.00;;;;;;5023504;28;89284;-42
2022/01/11 13:30:49;;;;;;;;;;;1.90;76.90;;;;;;5022442;28;87350;-42
2022/01/11 13:33:25;;;;;;;;;;;1.90;76.80;;;;;;5023752;28;88805;-42
2022/01/11 13:35:51;;;;;;;;;;;1.80;77.10;;;;;;5027064;28;88932;-42
2022/01/11 13:38:17;;;;;;;;;;;1.90;77.00;;;;;;5024038;28;87921;-42
2022/01/11 13:40:44;;;;;;;;;;;1.90;76.90;;;;;;5023230;28;89499;-42
2022/01/11 13:43:13;;;;;;;;;;;1.80;76.90;;;;;;5022844;28;88123;-42
2022/01/11 13:45:40;;;;;;;;;;;1.80;76.90;;;;;;5024003;28;89827;-42
2022/01/11 13:48:08;;;;;;;;;;;1.90;76.80;;;;;;5023167;28;89377;-42
2022/01/11 13:50:45;;;;;;;;;;;1.80;76.70;;;;;;5023627;28;87096;-42
2022/01/11 13:53:19;;;;;;;;;;;1.90;76.60;;;;;;5023720;28;88563;-42
2022/01/11 13:55:44;;;;;;;;;;;1.90;76.30;;;;;;5026111;28;89451;-42
2022/01/11 13:58:10;;;;;;;;;;;1.80;76.50;;;;;;5023622;28;88052;-42
2022/01/11 14:00:36;;;;;;;;;;;1.80;76.80;;;;;;5023727;28;89189;-42
2022/01/11 14:03:12;;;;;;;;;;;1.80;76.70;;;;;;5023544;28;87111;-42
2022/01/11 14:05:38;;;;;;;;;;;1.70;76.70;;;;;;5023430;28;88507;-42
2022/01/11 14:08:07;;;;;;;;;;;1.70;76.80;;;;;;5022321;28;90352;-42
2022/01/11 14:10:36;;;;;;;;;;;1.80;76.80;;;;;;5023490;28;87509;-42
2022/01/11 14:13:05;;;;;;;;;;;1.70;76.70;;;;;;5023308;28;88732;-42
2022/01/11 14:15:30;;;;;;;;;;;1.70;76.70;;;;;;5023027;28;89410;-42
2022/01/11 14:17:56;;;;;;;;;;;1.80;76.70;;;;;;5026261;28;87217;-42
2022/01/11 14:20:23;;;;;;;;;;;1.70;76.70;;;;;;5022983;28;89506;-42
2022/01/11 14:22:51;;;;;;;;;;;1.70;77.20;;;;;;5023176;28;87122;-42
2022/01/11 14:25:24;;;;;;;;;;;1.70;77.00;;;;;;5023887;28;88914;-42
2022/01/11 14:28:16;;;;;;;;;;;1.70;77.10;;;;;;5022702;28;89349;-42
2022/01/11 14:30:45;;;;;;;;;;;1.70;76.70;;;;;;5023774;27;86834;-42
2022/01/11 14:33:14;;;;;;;;;;;1.60;77.10;;;;;;5022516;28;88759;-42
2022/01/11 14:35:40;;;;;;;;;;;1.60;77.00;;;;;;5022687;28;88852;-42